sensor_id;sensor_type;location;lat;lon;timestamp;P1;durP1;ratioP1;P2;durP2;ratioP2
62574;SDS011;53112;45.602;11.904;2022-08-05T00:01:23;5.22;;;4.25;;
62574;SDS011;53112;45.602;11.904;2022-08-05T00:03:50;7.13;;;4.70;;
62574;SDS011;53112;45.602;11.904;2022-08-05T00:06:16;7.15;;;5.00;;
62574;SDS011;53112;45.602;11.904;2022-08-05T00:08:43;5.88;;;4.60;;
62574;SDS011;53112;45.602;11.904;2022-08-05T00:11:10;6.18;;;4.60;;
62574;SDS011;53112;45.602;11.904;2022-08-05T00:13:39;8.48;;;4.63;;
62574;SDS011;53112;45.602;11.904;2022-08-05T00:16:08;5.40;;;3.90;;
62574;SDS011;53112;45.602;11.904;2022-08-05T00:18:36;6.00;;;4.38;;
62574;SDS011;53112;45.602;11.904;2022-08-05T00:21:04;7.20;;;4.72;;
62574;SDS011;53112;45.602;11.904;2022-08-05T00:23:30;6.07;;;4.60;;
62574;SDS011;53112;45.602;11.904;2022-08-05T00:25:56;6.20;;;4.93;;
62574;SDS011;53112;45.602;11.904;2022-08-05T00:28:22;5.80;;;4.80;;
62574;SDS011;53112;45.602;11.904;2022-08-05T00:30:48;7.85;;;5.22;;
62574;SDS011;53112;45.602;11.904;2022-08-05T00:33:17;8.63;;;5.45;;
62574;SDS011;53112;45.602;11.904;2022-08-05T00:35:43;7.43;;;5.30;;
62574;SDS011;53112;45.602;11.904;2022-08-05T00:38:09;7.72;;;4.38;;
62574;SDS011;53112;45.602;11.904;2022-08-05T00:40:44;6.07;;;4.75;;
62574;SDS011;53112;45.602;11.904;2022-08-05T00:43:14;6.03;;;4.78;;
62574;SDS011;53112;45.602;11.904;2022-08-05T00:45:41;6.75;;;5.20;;
62574;SDS011;53112;45.602;11.904;2022-08-05T00:48:12;7.40;;;4.57;;
62574;SDS011;53112;45.602;11.904;2022-08-05T00:50:40;6.68;;;5.20;;
62574;SDS011;53112;45.602;11.904;2022-08-05T00:53:07;7.55;;;5.07;;
62574;SDS011;53112;45.602;11.904;2022-08-05T00:55:34;6.60;;;4.63;;
62574;SDS011;53112;45.602;11.904;2022-08-05T00:58:00;7.25;;;5.20;;
62574;SDS011;53112;45.602;11.904;2022-08-05T01:00:27;7.57;;;4.80;;
62574;SDS011;53112;45.602;11.904;2022-08-05T01:02:55;6.50;;;4.60;;
62574;SDS011;53112;45.602;11.904;2022-08-05T01:05:22;6.28;;;5.05;;
62574;SDS011;53112;45.602;11.904;2022-08-05T01:07:49;6.38;;;5.10;;
62574;SDS011;53112;45.602;11.904;2022-08-05T01:10:17;7.25;;;4.72;;
62574;SDS011;53112;45.602;11.904;2022-08-05T01:12:51;7.70;;;4.88;;
62574;SDS011;53112;45.602;11.904;2022-08-05T01:15:21;6.20;;;4.88;;
62574;SDS011;53112;45.602;11.904;2022-08-05T01:17:59;7.57;;;5.20;;
62574;SDS011;53112;45.602;11.904;2022-08-05T01:26:09;8.95;;;6.22;;
62574;SDS011;53112;45.602;11.904;2022-08-05T01:28:47;7.07;;;5.97;;
62574;SDS011;53112;45.602;11.904;2022-08-05T01:31:27;7.40;;;5.57;;
62574;SDS011;53112;45.602;11.904;2022-08-05T01:34:05;9.52;;;6.95;;
62574;SDS011;53112;45.602;11.904;2022-08-05T01:36:59;6.70;;;5.63;;
62574;SDS011;53112;45.602;11.904;2022-08-05T01:39:45;7.45;;;5.40;;
62574;SDS011;53112;45.602;11.904;2022-08-05T01:42:15;8.35;;;5.35;;
62574;SDS011;53112;45.602;11.904;2022-08-05T01:44:44;6.88;;;4.75;;
62574;SDS011;53112;45.602;11.904;2022-08-05T01:47:16;10.00;;;5.78;;
62574;SDS011;53112;45.602;11.904;2022-08-05T01:49:44;6.72;;;5.32;;
62574;SDS011;53112;45.602;11.904;2022-08-05T01:52:15;7.30;;;5.32;;
62574;SDS011;53112;45.602;11.904;2022-08-05T01:54:45;7.80;;;5.40;;
62574;SDS011;53112;45.602;11.904;2022-08-05T01:57:17;6.10;;;5.32;;
62574;SDS011;53112;45.602;11.904;2022-08-05T01:59:48;7.10;;;5.95;;
62574;SDS011;53112;45.602;11.904;2022-08-05T02:02:17;7.30;;;5.90;;
62574;SDS011;53112;45.602;11.904;2022-08-05T02:04:45;6.68;;;5.60;;
62574;SDS011;53112;45.602;11.904;2022-08-05T02:07:12;7.13;;;5.68;;
62574;SDS011;53112;45.602;11.904;2022-08-05T02:09:39;7.32;;;5.10;;
62574;SDS011;53112;45.602;11.904;2022-08-05T02:12:08;5.97;;;5.03;;
62574;SDS011;53112;45.602;11.904;2022-08-05T02:14:43;11.38;;;6.43;;
62574;SDS011;53112;45.602;11.904;2022-08-05T02:17:28;6.72;;;4.85;;
62574;SDS011;53112;45.602;11.904;2022-08-05T02:19:58;5.55;;;4.90;;
62574;SDS011;53112;45.602;11.904;2022-08-05T02:22:28;6.97;;;5.63;;
62574;SDS011;53112;45.602;11.904;2022-08-05T02:25:21;7.45;;;5.85;;
62574;SDS011;53112;45.602;11.904;2022-08-05T02:27:50;6.57;;;4.90;;
62574;SDS011;53112;45.602;11.904;2022-08-05T02:30:17;6.18;;;4.95;;
62574;SDS011;53112;45.602;11.904;2022-08-05T02:32:47;5.95;;;4.85;;
62574;SDS011;53112;45.602;11.904;2022-08-05T02:35:18;6.60;;;5.30;;
62574;SDS011;53112;45.602;11.904;2022-08-05T02:37:48;8.20;;;6.00;;
62574;SDS011;53112;45.602;11.904;2022-08-05T02:40:16;6.53;;;5.10;;
62574;SDS011;53112;45.602;11.904;2022-08-05T02:42:44;6.45;;;5.20;;
62574;SDS011;53112;45.602;11.904;2022-08-05T02:45:11;7.22;;;5.93;;
62574;SDS011;53112;45.602;11.904;2022-08-05T02:47:38;6.38;;;5.35;;
62574;SDS011;53112;45.602;11.904;2022-08-05T02:50:06;7.72;;;6.28;;
62574;SDS011;53112;45.602;11.904;2022-08-05T02:52:34;10.32;;;6.45;;
62574;SDS011;53112;45.602;11.904;2022-08-05T02:55:01;9.07;;;6.80;;
62574;SDS011;53112;45.602;11.904;2022-08-05T02:57:29;8.65;;;6.47;;
62574;SDS011;53112;45.602;11.904;2022-08-05T02:59:56;8.52;;;6.78;;
62574;SDS011;53112;45.602;11.904;2022-08-05T03:02:23;8.73;;;7.03;;
62574;SDS011;53112;45.602;11.904;2022-08-05T03:04:54;9.70;;;6.82;;
62574;SDS011;53112;45.602;11.904;2022-08-05T03:07:23;8.65;;;6.47;;
62574;SDS011;53112;45.602;11.904;2022-08-05T03:09:51;8.77;;;6.35;;
62574;SDS011;53112;45.602;11.904;2022-08-05T03:14:57;9.15;;;6.72;;
62574;SDS011;53112;45.602;11.904;2022-08-05T03:17:23;8.55;;;6.63;;
62574;SDS011;53112;45.602;11.904;2022-08-05T03:19:49;8.68;;;6.75;;
62574;SDS011;53112;45.602;11.904;2022-08-05T03:22:15;8.00;;;6.53;;
62574;SDS011;53112;45.602;11.904;2022-08-05T03:24:42;9.73;;;7.40;;
62574;SDS011;53112;45.602;11.904;2022-08-05T03:27:09;6.90;;;6.20;;
62574;SDS011;53112;45.602;11.904;2022-08-05T03:29:36;9.85;;;8.02;;
62574;SDS011;53112;45.602;11.904;2022-08-05T03:32:03;9.80;;;7.53;;
62574;SDS011;53112;45.602;11.904;2022-08-05T03:34:30;10.05;;;7.05;;
62574;SDS011;53112;45.602;11.904;2022-08-05T03:36:57;8.80;;;6.47;;
62574;SDS011;53112;45.602;11.904;2022-08-05T03:39:23;8.50;;;6.40;;
62574;SDS011;53112;45.602;11.904;2022-08-05T03:41:49;6.85;;;6.05;;
62574;SDS011;53112;45.602;11.904;2022-08-05T03:44:15;7.05;;;6.10;;
62574;SDS011;53112;45.602;11.904;2022-08-05T03:46:40;8.20;;;5.78;;
62574;SDS011;53112;45.602;11.904;2022-08-05T03:49:06;7.45;;;6.20;;
62574;SDS011;53112;45.602;11.904;2022-08-05T03:51:39;8.57;;;7.30;;
62574;SDS011;53112;45.602;11.904;2022-08-05T03:54:20;8.75;;;7.35;;
62574;SDS011;53112;45.602;11.904;2022-08-05T03:57:04;8.57;;;6.82;;
62574;SDS011;53112;45.602;11.904;2022-08-05T03:59:36;8.07;;;7.22;;
62574;SDS011;53112;45.602;11.904;2022-08-05T04:02:06;9.45;;;7.40;;
62574;SDS011;53112;45.602;11.904;2022-08-05T04:04:34;7.15;;;5.75;;
62574;SDS011;53112;45.602;11.904;2022-08-05T04:07:00;9.13;;;6.88;;
62574;SDS011;53112;45.602;11.904;2022-08-05T04:09:28;8.52;;;6.75;;
62574;SDS011;53112;45.602;11.904;2022-08-05T04:11:55;8.75;;;7.20;;
62574;SDS011;53112;45.602;11.904;2022-08-05T04:14:22;12.45;;;7.28;;
62574;SDS011;53112;45.602;11.904;2022-08-05T04:16:50;6.80;;;6.00;;
62574;SDS011;53112;45.602;11.904;2022-08-05T04:19:16;8.18;;;6.18;;
62574;SDS011;53112;45.602;11.904;2022-08-05T04:21:42;8.15;;;6.45;;
62574;SDS011;53112;45.602;11.904;2022-08-05T04:24:07;11.27;;;8.00;;
62574;SDS011;53112;45.602;11.904;2022-08-05T04:26:33;10.18;;;7.82;;
62574;SDS011;53112;45.602;11.904;2022-08-05T04:28:59;9.75;;;6.72;;
62574;SDS011;53112;45.602;11.904;2022-08-05T04:31:26;8.13;;;6.60;;
62574;SDS011;53112;45.602;11.904;2022-08-05T04:33:52;8.02;;;6.50;;
62574;SDS011;53112;45.602;11.904;2022-08-05T04:36:17;8.30;;;6.88;;
62574;SDS011;53112;45.602;11.904;2022-08-05T04:38:43;17.40;;;9.25;;
62574;SDS011;53112;45.602;11.904;2022-08-05T04:41:10;15.20;;;9.20;;
62574;SDS011;53112;45.602;11.904;2022-08-05T04:43:36;13.05;;;9.70;;
62574;SDS011;53112;45.602;11.904;2022-08-05T04:46:03;14.70;;;8.68;;
62574;SDS011;53112;45.602;11.904;2022-08-05T04:48:29;10.77;;;7.82;;
62574;SDS011;53112;45.602;11.904;2022-08-05T04:50:55;11.45;;;8.45;;
62574;SDS011;53112;45.602;11.904;2022-08-05T04:53:21;12.27;;;8.55;;
62574;SDS011;53112;45.602;11.904;2022-08-05T04:55:47;12.82;;;8.95;;
62574;SDS011;53112;45.602;11.904;2022-08-05T04:58:14;14.25;;;10.18;;
62574;SDS011;53112;45.602;11.904;2022-08-05T05:00:42;19.33;;;11.30;;
62574;SDS011;53112;45.602;11.904;2022-08-05T05:03:09;16.10;;;10.07;;
62574;SDS011;53112;45.602;11.904;2022-08-05T05:05:35;13.90;;;10.25;;
62574;SDS011;53112;45.602;11.904;2022-08-05T05:08:06;14.40;;;10.23;;
62574;SDS011;53112;45.602;11.904;2022-08-05T05:10:37;10.93;;;9.50;;
62574;SDS011;53112;45.602;11.904;2022-08-05T05:13:07;12.73;;;10.55;;
62574;SDS011;53112;45.602;11.904;2022-08-05T05:15:37;14.03;;;10.73;;
62574;SDS011;53112;45.602;11.904;2022-08-05T05:18:04;13.45;;;10.23;;
62574;SDS011;53112;45.602;11.904;2022-08-05T05:20:31;15.95;;;10.88;;
62574;SDS011;53112;45.602;11.904;2022-08-05T05:22:58;17.15;;;11.93;;
62574;SDS011;53112;45.602;11.904;2022-08-05T05:25:26;13.95;;;11.23;;
62574;SDS011;53112;45.602;11.904;2022-08-05T05:27:52;14.90;;;11.45;;
62574;SDS011;53112;45.602;11.904;2022-08-05T05:30:20;15.00;;;11.35;;
62574;SDS011;53112;45.602;11.904;2022-08-05T05:32:46;14.98;;;11.70;;
62574;SDS011;53112;45.602;11.904;2022-08-05T05:35:12;13.50;;;10.50;;
62574;SDS011;53112;45.602;11.904;2022-08-05T05:37:54;12.18;;;9.43;;
62574;SDS011;53112;45.602;11.904;2022-08-05T05:40:22;12.38;;;8.68;;
62574;SDS011;53112;45.602;11.904;2022-08-05T05:42:49;10.25;;;8.55;;
62574;SDS011;53112;45.602;11.904;2022-08-05T05:45:16;9.95;;;8.43;;
62574;SDS011;53112;45.602;11.904;2022-08-05T05:47:43;10.88;;;8.13;;
62574;SDS011;53112;45.602;11.904;2022-08-05T05:50:11;9.45;;;7.47;;
62574;SDS011;53112;45.602;11.904;2022-08-05T05:52:38;9.32;;;7.53;;
62574;SDS011;53112;45.602;11.904;2022-08-05T05:55:06;13.48;;;9.68;;
62574;SDS011;53112;45.602;11.904;2022-08-05T05:57:34;10.73;;;9.13;;
62574;SDS011;53112;45.602;11.904;2022-08-05T06:00:02;11.55;;;9.05;;
62574;SDS011;53112;45.602;11.904;2022-08-05T06:02:30;17.17;;;10.35;;
62574;SDS011;53112;45.602;11.904;2022-08-05T06:04:55;12.95;;;8.88;;
62574;SDS011;53112;45.602;11.904;2022-08-05T06:07:21;16.38;;;13.43;;
62574;SDS011;53112;45.602;11.904;2022-08-05T06:09:47;16.25;;;14.23;;
62574;SDS011;53112;45.602;11.904;2022-08-05T06:12:13;16.38;;;10.07;;
62574;SDS011;53112;45.602;11.904;2022-08-05T06:14:39;12.70;;;8.77;;
62574;SDS011;53112;45.602;11.904;2022-08-05T06:17:09;9.52;;;7.47;;
62574;SDS011;53112;45.602;11.904;2022-08-05T06:19:35;9.73;;;7.28;;
62574;SDS011;53112;45.602;11.904;2022-08-05T06:22:05;7.82;;;6.82;;
62574;SDS011;53112;45.602;11.904;2022-08-05T06:24:35;9.77;;;7.60;;
62574;SDS011;53112;45.602;11.904;2022-08-05T06:27:06;9.10;;;6.15;;
62574;SDS011;53112;45.602;11.904;2022-08-05T06:29:32;7.65;;;5.90;;
62574;SDS011;53112;45.602;11.904;2022-08-05T06:31:57;9.43;;;5.80;;
62574;SDS011;53112;45.602;11.904;2022-08-05T06:34:23;6.20;;;5.10;;
62574;SDS011;53112;45.602;11.904;2022-08-05T06:36:49;7.32;;;5.85;;
62574;SDS011;53112;45.602;11.904;2022-08-05T06:39:15;10.40;;;5.65;;
62574;SDS011;53112;45.602;11.904;2022-08-05T06:41:40;6.10;;;5.07;;
62574;SDS011;53112;45.602;11.904;2022-08-05T06:44:06;7.38;;;5.68;;
62574;SDS011;53112;45.602;11.904;2022-08-05T06:46:32;8.73;;;5.53;;
62574;SDS011;53112;45.602;11.904;2022-08-05T06:48:59;6.25;;;5.22;;
62574;SDS011;53112;45.602;11.904;2022-08-05T06:51:24;7.13;;;5.20;;
62574;SDS011;53112;45.602;11.904;2022-08-05T06:53:50;8.23;;;5.10;;
62574;SDS011;53112;45.602;11.904;2022-08-05T06:56:16;5.78;;;4.60;;
62574;SDS011;53112;45.602;11.904;2022-08-05T06:58:43;6.55;;;4.65;;
62574;SDS011;53112;45.602;11.904;2022-08-05T07:01:09;5.45;;;4.70;;
62574;SDS011;53112;45.602;11.904;2022-08-05T07:03:35;5.28;;;4.60;;
62574;SDS011;53112;45.602;11.904;2022-08-05T07:06:01;5.75;;;4.03;;
62574;SDS011;53112;45.602;11.904;2022-08-05T07:08:28;6.55;;;4.57;;
62574;SDS011;53112;45.602;11.904;2022-08-05T07:10:54;6.00;;;4.40;;
62574;SDS011;53112;45.602;11.904;2022-08-05T07:13:21;7.45;;;4.70;;
62574;SDS011;53112;45.602;11.904;2022-08-05T07:16:06;7.03;;;4.22;;
62574;SDS011;53112;45.602;11.904;2022-08-05T07:18:51;4.75;;;3.88;;
62574;SDS011;53112;45.602;11.904;2022-08-05T07:21:17;6.22;;;4.30;;
62574;SDS011;53112;45.602;11.904;2022-08-05T07:23:42;8.27;;;4.60;;
62574;SDS011;53112;45.602;11.904;2022-08-05T07:26:08;6.10;;;4.10;;
62574;SDS011;53112;45.602;11.904;2022-08-05T07:28:34;5.22;;;3.95;;
62574;SDS011;53112;45.602;11.904;2022-08-05T07:31:00;5.50;;;4.20;;
62574;SDS011;53112;45.602;11.904;2022-08-05T07:33:26;7.68;;;4.00;;
62574;SDS011;53112;45.602;11.904;2022-08-05T07:35:51;6.22;;;4.35;;
62574;SDS011;53112;45.602;11.904;2022-08-05T07:38:17;4.80;;;3.67;;
62574;SDS011;53112;45.602;11.904;2022-08-05T07:40:43;4.80;;;3.92;;
62574;SDS011;53112;45.602;11.904;2022-08-05T07:43:10;6.45;;;3.60;;
62574;SDS011;53112;45.602;11.904;2022-08-05T07:45:38;4.85;;;3.70;;
62574;SDS011;53112;45.602;11.904;2022-08-05T07:48:05;5.30;;;3.78;;
62574;SDS011;53112;45.602;11.904;2022-08-05T07:50:30;4.07;;;3.47;;
62574;SDS011;53112;45.602;11.904;2022-08-05T07:52:56;6.22;;;3.80;;
62574;SDS011;53112;45.602;11.904;2022-08-05T07:55:22;5.20;;;3.60;;
62574;SDS011;53112;45.602;11.904;2022-08-05T07:57:48;8.00;;;3.70;;
62574;SDS011;53112;45.602;11.904;2022-08-05T08:00:15;4.13;;;3.63;;
62574;SDS011;53112;45.602;11.904;2022-08-05T08:02:41;4.38;;;3.53;;
62574;SDS011;53112;45.602;11.904;2022-08-05T08:05:08;6.78;;;4.00;;
62574;SDS011;53112;45.602;11.904;2022-08-05T08:07:35;6.95;;;3.58;;
62574;SDS011;53112;45.602;11.904;2022-08-05T08:10:01;5.07;;;3.38;;
62574;SDS011;53112;45.602;11.904;2022-08-05T08:12:28;5.38;;;3.20;;
62574;SDS011;53112;45.602;11.904;2022-08-05T08:14:54;4.65;;;3.47;;
62574;SDS011;53112;45.602;11.904;2022-08-05T08:17:20;7.90;;;3.38;;
62574;SDS011;53112;45.602;11.904;2022-08-05T08:19:46;6.63;;;3.33;;
62574;SDS011;53112;45.602;11.904;2022-08-05T08:22:12;5.45;;;3.30;;
62574;SDS011;53112;45.602;11.904;2022-08-05T08:24:38;3.95;;;3.15;;
62574;SDS011;53112;45.602;11.904;2022-08-05T08:27:04;5.13;;;3.25;;
62574;SDS011;53112;45.602;11.904;2022-08-05T08:29:30;3.88;;;3.15;;
62574;SDS011;53112;45.602;11.904;2022-08-05T08:31:56;3.40;;;2.90;;
62574;SDS011;53112;45.602;11.904;2022-08-05T08:34:23;4.10;;;2.70;;
62574;SDS011;53112;45.602;11.904;2022-08-05T08:36:50;3.70;;;2.75;;
62574;SDS011;53112;45.602;11.904;2022-08-05T08:39:17;3.85;;;2.80;;
62574;SDS011;53112;45.602;11.904;2022-08-05T08:41:44;2.88;;;2.60;;
62574;SDS011;53112;45.602;11.904;2022-08-05T08:44:19;3.13;;;2.60;;
62574;SDS011;53112;45.602;11.904;2022-08-05T08:46:47;3.40;;;2.50;;
62574;SDS011;53112;45.602;11.904;2022-08-05T08:49:14;2.75;;;2.38;;
62574;SDS011;53112;45.602;11.904;2022-08-05T08:51:41;3.55;;;2.40;;
62574;SDS011;53112;45.602;11.904;2022-08-05T08:54:12;5.75;;;2.75;;
62574;SDS011;53112;45.602;11.904;2022-08-05T08:56:39;3.58;;;2.70;;
62574;SDS011;53112;45.602;11.904;2022-08-05T08:59:06;2.63;;;2.38;;
62574;SDS011;53112;45.602;11.904;2022-08-05T09:01:32;2.72;;;2.47;;
62574;SDS011;53112;45.602;11.904;2022-08-05T09:03:58;3.88;;;2.35;;
62574;SDS011;53112;45.602;11.904;2022-08-05T09:06:25;3.78;;;2.38;;
62574;SDS011;53112;45.602;11.904;2022-08-05T09:08:53;2.70;;;2.40;;
62574;SDS011;53112;45.602;11.904;2022-08-05T09:11:20;3.00;;;2.20;;
62574;SDS011;53112;45.602;11.904;2022-08-05T09:13:46;3.85;;;2.40;;
62574;SDS011;53112;45.602;11.904;2022-08-05T09:16:12;2.38;;;2.20;;
62574;SDS011;53112;45.602;11.904;2022-08-05T09:18:39;3.70;;;2.50;;
62574;SDS011;53112;45.602;11.904;2022-08-05T09:21:05;2.95;;;2.30;;
62574;SDS011;53112;45.602;11.904;2022-08-05T09:23:31;2.80;;;2.33;;
62574;SDS011;53112;45.602;11.904;2022-08-05T09:26:07;7.00;;;2.40;;
62574;SDS011;53112;45.602;11.904;2022-08-05T09:28:40;5.60;;;2.70;;
62574;SDS011;53112;45.602;11.904;2022-08-05T09:31:11;4.95;;;2.30;;
62574;SDS011;53112;45.602;11.904;2022-08-05T09:33:47;4.78;;;2.50;;
62574;SDS011;53112;45.602;11.904;2022-08-05T09:36:15;3.33;;;2.20;;
62574;SDS011;53112;45.602;11.904;2022-08-05T09:39:00;4.20;;;2.40;;
62574;SDS011;53112;45.602;11.904;2022-08-05T09:41:29;3.45;;;2.22;;
62574;SDS011;53112;45.602;11.904;2022-08-05T09:43:55;3.92;;;2.20;;
62574;SDS011;53112;45.602;11.904;2022-08-05T09:46:28;2.30;;;2.10;;
62574;SDS011;53112;45.602;11.904;2022-08-05T09:48:56;4.10;;;2.15;;
62574;SDS011;53112;45.602;11.904;2022-08-05T09:51:31;3.58;;;2.20;;
62574;SDS011;53112;45.602;11.904;2022-08-05T09:53:58;3.55;;;2.00;;
62574;SDS011;53112;45.602;11.904;2022-08-05T09:56:26;2.45;;;2.00;;
62574;SDS011;53112;45.602;11.904;2022-08-05T09:59:01;3.95;;;2.13;;
62574;SDS011;53112;45.602;11.904;2022-08-05T10:01:37;3.05;;;2.08;;
62574;SDS011;53112;45.602;11.904;2022-08-05T10:04:08;3.05;;;2.13;;
62574;SDS011;53112;45.602;11.904;2022-08-05T10:06:41;2.15;;;1.95;;
62574;SDS011;53112;45.602;11.904;2022-08-05T10:09:18;2.88;;;2.03;;
62574;SDS011;53112;45.602;11.904;2022-08-05T10:11:45;3.28;;;1.90;;
62574;SDS011;53112;45.602;11.904;2022-08-05T10:14:19;3.58;;;2.10;;
62574;SDS011;53112;45.602;11.904;2022-08-05T10:16:56;3.03;;;2.00;;
62574;SDS011;53112;45.602;11.904;2022-08-05T10:19:37;2.50;;;2.00;;
62574;SDS011;53112;45.602;11.904;2022-08-05T10:22:04;2.45;;;2.00;;
62574;SDS011;53112;45.602;11.904;2022-08-05T10:24:35;1.90;;;1.70;;
62574;SDS011;53112;45.602;11.904;2022-08-05T10:27:01;4.00;;;2.00;;
62574;SDS011;53112;45.602;11.904;2022-08-05T10:29:28;3.45;;;1.90;;
62574;SDS011;53112;45.602;11.904;2022-08-05T10:31:58;2.10;;;1.90;;
62574;SDS011;53112;45.602;11.904;2022-08-05T10:34:24;2.75;;;2.10;;
62574;SDS011;53112;45.602;11.904;2022-08-05T10:36:50;2.70;;;1.70;;
62574;SDS011;53112;45.602;11.904;2022-08-05T10:39:18;1.90;;;1.80;;
62574;SDS011;53112;45.602;11.904;2022-08-05T10:41:48;5.97;;;1.90;;
62574;SDS011;53112;45.602;11.904;2022-08-05T10:44:24;1.80;;;1.70;;
62574;SDS011;53112;45.602;11.904;2022-08-05T10:46:53;1.80;;;1.70;;
62574;SDS011;53112;45.602;11.904;2022-08-05T10:49:22;2.60;;;1.70;;
62574;SDS011;53112;45.602;11.904;2022-08-05T10:51:54;3.28;;;1.90;;
62574;SDS011;53112;45.602;11.904;2022-08-05T10:57:30;3.30;;;1.98;;
62574;SDS011;53112;45.602;11.904;2022-08-05T11:00:06;2.30;;;1.60;;
62574;SDS011;53112;45.602;11.904;2022-08-05T11:02:32;2.88;;;1.90;;
62574;SDS011;53112;45.602;11.904;2022-08-05T11:04:58;2.10;;;1.90;;
62574;SDS011;53112;45.602;11.904;2022-08-05T11:09:53;3.72;;;1.88;;
62574;SDS011;53112;45.602;11.904;2022-08-05T11:15:20;3.10;;;1.90;;
62574;SDS011;53112;45.602;11.904;2022-08-05T11:17:51;2.10;;;1.85;;
62574;SDS011;53112;45.602;11.904;2022-08-05T11:20:31;4.50;;;1.80;;
62574;SDS011;53112;45.602;11.904;2022-08-05T11:26:01;1.77;;;1.67;;
62574;SDS011;53112;45.602;11.904;2022-08-05T11:28:52;2.72;;;1.60;;
62574;SDS011;53112;45.602;11.904;2022-08-05T11:31:22;2.70;;;1.90;;
62574;SDS011;53112;45.602;11.904;2022-08-05T11:33:54;2.65;;;1.90;;
62574;SDS011;53112;45.602;11.904;2022-08-05T11:39:09;3.92;;;1.80;;
62574;SDS011;53112;45.602;11.904;2022-08-05T11:41:39;1.95;;;1.73;;
62574;SDS011;53112;45.602;11.904;2022-08-05T11:44:14;2.33;;;1.88;;
62574;SDS011;53112;45.602;11.904;2022-08-05T11:46:50;6.55;;;1.80;;
62574;SDS011;53112;45.602;11.904;2022-08-05T11:49:18;1.70;;;1.60;;
62574;SDS011;53112;45.602;11.904;2022-08-05T11:51:47;2.80;;;1.80;;
62574;SDS011;53112;45.602;11.904;2022-08-05T11:54:22;2.33;;;1.73;;
62574;SDS011;53112;45.602;11.904;2022-08-05T11:56:54;2.00;;;1.80;;
62574;SDS011;53112;45.602;11.904;2022-08-05T11:59:28;3.20;;;1.90;;
62574;SDS011;53112;45.602;11.904;2022-08-05T12:04:25;2.35;;;1.73;;
62574;SDS011;53112;45.602;11.904;2022-08-05T12:06:53;2.88;;;1.80;;
62574;SDS011;53112;45.602;11.904;2022-08-05T12:09:20;2.63;;;1.80;;
62574;SDS011;53112;45.602;11.904;2022-08-05T12:11:51;1.98;;;1.50;;
62574;SDS011;53112;45.602;11.904;2022-08-05T12:14:18;2.40;;;1.75;;
62574;SDS011;53112;45.602;11.904;2022-08-05T12:16:44;2.03;;;1.67;;
62574;SDS011;53112;45.602;11.904;2022-08-05T12:19:13;2.03;;;1.83;;
62574;SDS011;53112;45.602;11.904;2022-08-05T12:21:42;2.10;;;1.90;;
62574;SDS011;53112;45.602;11.904;2022-08-05T12:24:18;2.65;;;1.70;;
62574;SDS011;53112;45.602;11.904;2022-08-05T12:26:46;2.58;;;1.90;;
62574;SDS011;53112;45.602;11.904;2022-08-05T12:29:15;3.50;;;2.00;;
62574;SDS011;53112;45.602;11.904;2022-08-05T12:31:44;4.22;;;1.80;;
62574;SDS011;53112;45.602;11.904;2022-08-05T12:34:15;3.15;;;1.90;;
62574;SDS011;53112;45.602;11.904;2022-08-05T12:36:43;2.65;;;1.90;;
62574;SDS011;53112;45.602;11.904;2022-08-05T12:39:11;3.58;;;1.88;;
62574;SDS011;53112;45.602;11.904;2022-08-05T12:41:38;4.07;;;2.00;;
62574;SDS011;53112;45.602;11.904;2022-08-05T12:44:06;2.22;;;1.80;;
62574;SDS011;53112;45.602;11.904;2022-08-05T12:46:37;2.10;;;1.88;;
62574;SDS011;53112;45.602;11.904;2022-08-05T12:49:08;2.85;;;1.85;;
62574;SDS011;53112;45.602;11.904;2022-08-05T12:54:21;4.20;;;2.03;;
62574;SDS011;53112;45.602;11.904;2022-08-05T12:56:51;3.40;;;2.15;;
62574;SDS011;53112;45.602;11.904;2022-08-05T12:59:26;2.47;;;1.65;;
62574;SDS011;53112;45.602;11.904;2022-08-05T13:02:02;4.40;;;2.08;;
62574;SDS011;53112;45.602;11.904;2022-08-05T13:04:31;3.00;;;1.90;;
62574;SDS011;53112;45.602;11.904;2022-08-05T13:07:04;2.47;;;1.80;;
62574;SDS011;53112;45.602;11.904;2022-08-05T13:09:40;2.20;;;1.75;;
62574;SDS011;53112;45.602;11.904;2022-08-05T13:12:11;2.80;;;1.88;;
62574;SDS011;53112;45.602;11.904;2022-08-05T13:14:43;3.33;;;1.80;;
62574;SDS011;53112;45.602;11.904;2022-08-05T13:17:17;2.35;;;1.70;;
62574;SDS011;53112;45.602;11.904;2022-08-05T13:22:35;2.70;;;1.90;;
62574;SDS011;53112;45.602;11.904;2022-08-05T13:25:07;3.85;;;1.83;;
62574;SDS011;53112;45.602;11.904;2022-08-05T13:27:40;4.40;;;2.05;;
62574;SDS011;53112;45.602;11.904;2022-08-05T13:30:08;2.58;;;1.85;;
62574;SDS011;53112;45.602;11.904;2022-08-05T13:32:35;2.65;;;1.83;;
62574;SDS011;53112;45.602;11.904;2022-08-05T13:35:02;3.05;;;1.70;;
62574;SDS011;53112;45.602;11.904;2022-08-05T13:37:30;3.70;;;1.98;;
62574;SDS011;53112;45.602;11.904;2022-08-05T13:39:57;3.17;;;1.88;;
62574;SDS011;53112;45.602;11.904;2022-08-05T13:42:24;3.72;;;1.90;;
62574;SDS011;53112;45.602;11.904;2022-08-05T13:44:51;2.25;;;1.77;;
62574;SDS011;53112;45.602;11.904;2022-08-05T13:47:21;2.80;;;1.95;;
62574;SDS011;53112;45.602;11.904;2022-08-05T13:49:48;2.20;;;1.90;;
62574;SDS011;53112;45.602;11.904;2022-08-05T13:54:42;2.83;;;1.98;;
62574;SDS011;53112;45.602;11.904;2022-08-05T13:57:08;1.90;;;1.80;;
62574;SDS011;53112;45.602;11.904;2022-08-05T13:59:36;2.83;;;1.98;;
62574;SDS011;53112;45.602;11.904;2022-08-05T14:02:03;3.53;;;2.00;;
62574;SDS011;53112;45.602;11.904;2022-08-05T14:04:31;2.53;;;1.90;;
62574;SDS011;53112;45.602;11.904;2022-08-05T14:07:28;3.55;;;1.92;;
62574;SDS011;53112;45.602;11.904;2022-08-05T14:09:59;2.58;;;1.90;;
62574;SDS011;53112;45.602;11.904;2022-08-05T14:12:25;3.35;;;1.75;;
62574;SDS011;53112;45.602;11.904;2022-08-05T14:14:52;1.83;;;1.60;;
62574;SDS011;53112;45.602;11.904;2022-08-05T14:17:18;4.38;;;1.90;;
62574;SDS011;53112;45.602;11.904;2022-08-05T14:19:44;2.28;;;1.83;;
62574;SDS011;53112;45.602;11.904;2022-08-05T14:22:10;6.35;;;1.92;;
62574;SDS011;53112;45.602;11.904;2022-08-05T14:24:36;3.38;;;1.80;;
62574;SDS011;53112;45.602;11.904;2022-08-05T14:27:04;3.28;;;1.73;;
62574;SDS011;53112;45.602;11.904;2022-08-05T14:29:31;3.50;;;1.80;;
62574;SDS011;53112;45.602;11.904;2022-08-05T14:31:57;2.65;;;1.80;;
62574;SDS011;53112;45.602;11.904;2022-08-05T14:34:23;2.03;;;1.75;;
62574;SDS011;53112;45.602;11.904;2022-08-05T14:36:49;1.90;;;1.67;;
62574;SDS011;53112;45.602;11.904;2022-08-05T14:39:15;1.98;;;1.77;;
62574;SDS011;53112;45.602;11.904;2022-08-05T14:41:41;4.85;;;1.70;;
62574;SDS011;53112;45.602;11.904;2022-08-05T14:44:06;3.42;;;1.70;;
62574;SDS011;53112;45.602;11.904;2022-08-05T14:46:32;1.83;;;1.70;;
62574;SDS011;53112;45.602;11.904;2022-08-05T14:48:59;2.90;;;1.65;;
62574;SDS011;53112;45.602;11.904;2022-08-05T14:51:26;2.60;;;1.73;;
62574;SDS011;53112;45.602;11.904;2022-08-05T14:53:53;3.95;;;1.80;;
62574;SDS011;53112;45.602;11.904;2022-08-05T14:56:19;1.80;;;1.70;;
62574;SDS011;53112;45.602;11.904;2022-08-05T14:58:46;4.85;;;1.92;;
62574;SDS011;53112;45.602;11.904;2022-08-05T15:01:12;2.13;;;1.70;;
62574;SDS011;53112;45.602;11.904;2022-08-05T15:03:38;2.88;;;1.90;;
62574;SDS011;53112;45.602;11.904;2022-08-05T15:06:04;2.35;;;1.77;;
62574;SDS011;53112;45.602;11.904;2022-08-05T15:08:31;1.92;;;1.73;;
62574;SDS011;53112;45.602;11.904;2022-08-05T15:10:57;2.25;;;1.60;;
62574;SDS011;53112;45.602;11.904;2022-08-05T15:13:23;2.42;;;1.80;;
62574;SDS011;53112;45.602;11.904;2022-08-05T15:15:48;2.20;;;1.80;;